Time;durP1;ratioP1;P1;durP2;ratioP2;P2;SDS_P1;SDS_P2;PMS_P1;PMS_P2;Temp;Humidity;BMP_temperature;BMP_pressure;BME280_temperature;BME280_humidity;BME280_pressure;Samples;Min_cycle;Max_cycle;Signal;HPM_P1;HPM_P2
2022/06/18 00:00:56;;;;;;;5.38;3.25;;;19.00;99.90;;;;;;5075693;28;20177;-66
2022/06/18 00:03:24;;;;;;;3.42;3.05;;;19.00;99.90;;;;;;5075152;28;20193;-66
2022/06/18 00:05:52;;;;;;;4.47;3.70;;;18.90;99.90;;;;;;5073927;28;20185;-66
2022/06/18 00:08:25;;;;;;;5.15;3.50;;;18.90;99.90;;;;;;5074976;28;20694;-66
2022/06/18 00:13:39;;;;;;;3.95;3.13;;;18.80;99.90;;;;;;5074422;28;20246;-66
2022/06/18 00:13:43;;;;;;;3.17;2.88;;;18.80;99.90;;;;;;5073976;28;20205;-66
2022/06/18 00:16:13;;;;;;;4.70;3.50;;;18.70;99.90;;;;;;5074637;28;20623;-66
2022/06/18 00:18:39;;;;;;;4.80;3.05;;;18.60;99.90;;;;;;5074573;28;20158;-66
2022/06/18 00:21:07;;;;;;;5.35;2.90;;;18.60;99.90;;;;;;5074654;28;20193;-66
2022/06/18 00:23:33;;;;;;;5.47;3.72;;;18.50;99.90;;;;;;5074400;28;20269;-66
2022/06/18 00:25:59;;;;;;;5.45;3.80;;;18.50;99.90;;;;;;5072932;28;20736;-66
2022/06/18 00:28:28;;;;;;;6.20;3.40;;;18.50;99.90;;;;;;5072599;28;20212;-66
2022/06/18 00:30:54;;;;;;;4.53;3.63;;;18.60;99.90;;;;;;5074074;28;20206;-66
2022/06/18 00:33:21;;;;;;;3.33;2.97;;;18.50;99.90;;;;;;5074245;28;20201;-66
2022/06/18 00:35:48;;;;;;;6.20;3.88;;;18.40;99.90;;;;;;5074397;28;20205;-66
2022/06/18 00:38:27;;;;;;;5.43;4.07;;;18.40;99.90;;;;;;5073838;28;20249;-66
2022/06/18 00:40:54;;;;;;;5.78;3.90;;;18.40;99.90;;;;;;5074548;28;20162;-66
2022/06/18 00:43:39;;;;;;;5.35;3.90;;;18.30;99.90;;;;;;5074162;28;20670;-66
2022/06/18 00:46:14;;;;;;;5.43;3.72;;;18.30;99.90;;;;;;5074660;28;20702;-66
2022/06/18 00:48:55;;;;;;;5.72;3.33;;;18.30;99.90;;;;;;5072870;28;20185;-66
2022/06/18 00:51:28;;;;;;;4.55;3.38;;;18.20;99.90;;;;;;5074440;28;20189;-66
2022/06/18 00:54:00;;;;;;;4.68;3.40;;;18.10;99.90;;;;;;5074247;28;20240;-66
2022/06/18 00:56:43;;;;;;;6.20;3.45;;;18.10;99.90;;;;;;5074161;28;20177;-66
2022/06/18 00:59:27;;;;;;;4.60;3.90;;;18.00;99.90;;;;;;5073558;28;20197;-66
2022/06/18 01:01:54;;;;;;;6.60;3.85;;;17.90;99.90;;;;;;5074021;28;20168;-66
2022/06/18 01:04:33;;;;;;;5.05;3.35;;;17.90;99.90;;;;;;5073580;28;20205;-66
2022/06/18 01:07:16;;;;;;;4.35;3.13;;;17.80;99.90;;;;;;5073721;28;20170;-66
2022/06/18 01:09:46;;;;;;;4.57;3.50;;;17.80;99.90;;;;;;5072147;28;20315;-66
2022/06/18 01:12:12;;;;;;;4.68;3.35;;;17.70;99.90;;;;;;5074088;28;20230;-66
2022/06/18 01:14:38;;;;;;;5.03;3.78;;;17.60;99.90;;;;;;5073145;28;20286;-66
2022/06/18 01:17:06;;;;;;;6.10;3.53;;;17.60;99.90;;;;;;5072352;28;20367;-66
2022/06/18 01:19:43;;;;;;;3.75;3.20;;;17.60;99.90;;;;;;5073671;28;20177;-66
2022/06/18 01:22:45;;;;;;;4.35;3.88;;;17.60;99.90;;;;;;5073887;28;20295;-66
2022/06/18 01:25:11;;;;;;;5.97;3.55;;;17.60;99.90;;;;;;5073423;28;20260;-66
2022/06/18 01:27:38;;;;;;;7.63;3.78;;;17.60;99.90;;;;;;5073496;28;20604;-66
2022/06/18 01:30:10;;;;;;;6.00;3.75;;;17.70;99.90;;;;;;5073274;28;20197;-66
2022/06/18 01:32:36;;;;;;;5.05;4.10;;;17.70;99.90;;;;;;5073500;28;20165;-66
2022/06/18 01:35:04;;;;;;;4.93;3.60;;;17.60;99.90;;;;;;5073285;28;20193;-67
2022/06/18 01:37:31;;;;;;;6.03;3.97;;;17.60;99.90;;;;;;5073410;28;20177;-66
2022/06/18 01:39:57;;;;;;;5.18;3.40;;;17.60;99.90;;;;;;5073329;28;20178;-66
2022/06/18 01:42:32;;;;;;;9.52;4.13;;;17.70;99.90;;;;;;5071910;28;20180;-66
2022/06/18 01:45:08;;;;;;;6.00;4.15;;;17.60;99.90;;;;;;5073073;28;20696;-66
2022/06/18 01:47:42;;;;;;;4.47;3.80;;;17.60;99.90;;;;;;5073136;28;20205;-66
2022/06/18 01:50:20;;;;;;;5.95;4.05;;;17.60;99.90;;;;;;5073319;28;20197;-66
2022/06/18 01:52:50;;;;;;;8.00;4.35;;;17.60;99.90;;;;;;5075665;28;20170;-66
2022/06/18 01:55:21;;;;;;;5.20;3.50;;;17.60;99.90;;;;;;5075719;28;20624;-66
2022/06/18 01:57:56;;;;;;;4.32;3.65;;;17.50;99.90;;;;;;5077062;28;20303;-66
2022/06/18 02:00:26;;;;;;;4.10;3.65;;;17.50;99.90;;;;;;5076817;28;20173;-66
2022/06/18 02:02:52;;;;;;;6.47;4.25;;;17.50;99.90;;;;;;5077137;28;20715;-67
2022/06/18 02:05:20;;;;;;;4.72;4.10;;;17.40;99.90;;;;;;5076773;28;20181;-66
2022/06/18 02:07:47;;;;;;;5.53;3.97;;;17.40;99.90;;;;;;5076784;28;20173;-66
2022/06/18 02:10:18;;;;;;;4.68;3.88;;;17.30;99.90;;;;;;5076655;28;20193;-66
2022/06/18 02:12:45;;;;;;;4.47;3.70;;;17.20;99.90;;;;;;5076964;28;20233;-66
2022/06/18 02:15:17;;;;;;;6.53;4.10;;;17.20;99.90;;;;;;5076150;28;20262;-67
2022/06/18 02:17:44;;;;;;;9.75;3.80;;;17.20;99.90;;;;;;5076714;28;20168;-66
2022/06/18 02:20:20;;;;;;;9.55;4.05;;;17.10;99.90;;;;;;5075490;28;20181;-66
2022/06/18 02:22:49;;;;;;;8.02;4.78;;;17.10;99.90;;;;;;5076994;28;20174;-66
2022/06/18 02:25:18;;;;;;;8.48;3.70;;;17.10;99.90;;;;;;5076699;28;20646;-66
2022/06/18 02:27:45;;;;;;;9.00;3.75;;;17.00;99.90;;;;;;5076347;28;20177;-66
2022/06/18 02:30:23;;;;;;;6.03;3.92;;;17.00;99.90;;;;;;5074837;28;20202;-66
2022/06/18 02:33:15;;;;;;;5.00;4.25;;;16.90;99.90;;;;;;5076842;28;20162;-67
2022/06/18 02:35:41;;;;;;;4.35;3.92;;;16.80;99.90;;;;;;5076549;28;20182;-66
2022/06/18 02:38:19;;;;;;;6.68;4.55;;;16.70;99.90;;;;;;5077073;28;20284;-66
2022/06/18 02:40:46;;;;;;;5.95;4.03;;;16.70;99.90;;;;;;5076507;28;20511;-66
2022/06/18 02:43:13;;;;;;;7.63;4.35;;;16.70;99.90;;;;;;5076037;28;20540;-66
2022/06/18 02:45:40;;;;;;;9.68;4.20;;;16.80;99.90;;;;;;5075955;28;20544;-66
2022/06/18 02:48:11;;;;;;;5.72;4.60;;;16.80;99.90;;;;;;5075988;28;20596;-66
2022/06/18 02:50:40;;;;;;;9.95;4.15;;;16.80;99.90;;;;;;5075908;28;20208;-66
2022/06/18 02:53:08;;;;;;;7.20;4.00;;;16.80;99.90;;;;;;5074572;28;20231;-66
2022/06/18 02:55:46;;;;;;;4.90;3.97;;;16.80;99.90;;;;;;5076174;28;20667;-66
2022/06/18 02:58:19;;;;;;;5.65;4.03;;;16.80;99.90;;;;;;5075863;28;20162;-66
2022/06/18 03:00:48;;;;;;;6.72;3.72;;;16.80;99.90;;;;;;5075614;28;20158;-66
2022/06/18 03:03:15;;;;;;;5.85;3.75;;;16.80;99.90;;;;;;5073969;28;20217;-66
2022/06/18 03:05:42;;;;;;;9.45;4.10;;;16.80;99.90;;;;;;5075787;28;20182;-66
2022/06/18 03:08:08;;;;;;;5.10;4.10;;;16.90;99.90;;;;;;5074294;28;20259;-66
2022/06/18 03:13:20;;;;;;;6.10;3.85;;;16.70;99.90;;;;;;5075442;28;20201;-66
2022/06/18 03:15:48;;;;;;;5.78;4.20;;;16.70;99.90;;;;;;5075298;28;20193;-66
2022/06/18 03:18:16;;;;;;;4.28;3.63;;;16.60;99.90;;;;;;5075320;28;20170;-66
2022/06/18 03:21:03;;;;;;;6.10;3.88;;;16.50;99.90;;;;;;5074053;28;20220;-66
2022/06/18 03:23:30;;;;;;;4.60;4.13;;;16.40;99.90;;;;;;5075603;28;20197;-66
2022/06/18 03:25:56;;;;;;;5.47;3.83;;;16.50;99.90;;;;;;5074212;28;20269;-66
2022/06/18 03:28:24;;;;;;;5.15;3.95;;;16.50;99.90;;;;;;5075249;28;20180;-66
2022/06/18 03:30:49;;;;;;;5.25;3.97;;;16.50;99.90;;;;;;5075143;28;20212;-66
2022/06/18 03:33:15;;;;;;;5.20;4.28;;;16.50;99.90;;;;;;5075102;28;20670;-66
2022/06/18 03:35:45;;;;;;;9.30;4.20;;;16.50;99.90;;;;;;5075093;28;20501;-66
2022/06/18 03:38:12;;;;;;;4.63;3.90;;;16.50;99.90;;;;;;5074980;28;20184;-66
2022/06/18 03:40:39;;;;;;;3.95;3.65;;;16.50;99.90;;;;;;5074936;28;20251;-66
2022/06/18 03:43:05;;;;;;;5.15;4.28;;;16.60;99.90;;;;;;5073659;28;20231;-66
2022/06/18 03:45:39;;;;;;;7.82;3.95;;;16.70;99.90;;;;;;5074802;28;20177;-66
2022/06/18 03:48:07;;;;;;;4.07;3.65;;;16.80;99.90;;;;;;5075243;28;20161;-66
2022/06/18 03:50:33;;;;;;;5.97;4.03;;;16.80;99.90;;;;;;5075258;28;20193;-66
2022/06/18 03:52:59;;;;;;;4.50;4.05;;;16.80;99.90;;;;;;5074724;28;20619;-66
2022/06/18 03:55:25;;;;;;;5.13;3.85;;;16.70;99.90;;;;;;5075230;28;20170;-67
2022/06/18 03:57:51;;;;;;;5.35;4.10;;;16.80;99.90;;;;;;5074766;28;20174;-66
2022/06/18 04:00:20;;;;;;;6.13;3.40;;;16.80;99.90;;;;;;5074301;28;20185;-66
2022/06/18 04:02:46;;;;;;;5.80;3.78;;;16.90;99.90;;;;;;5074643;28;20193;-66
2022/06/18 04:05:13;;;;;;;10.93;3.90;;;16.90;99.90;;;;;;5075262;28;20197;-66
2022/06/18 04:07:40;;;;;;;7.38;3.83;;;17.00;99.90;;;;;;5074364;28;20174;-67
2022/06/18 04:10:06;;;;;;;6.57;4.15;;;16.90;99.90;;;;;;5074588;28;20292;-67
2022/06/18 04:12:33;;;;;;;12.77;4.63;;;17.00;99.90;;;;;;5073199;28;20226;-66
2022/06/18 04:14:59;;;;;;;6.43;4.35;;;17.00;99.90;;;;;;5073102;28;20220;-67
2022/06/18 04:17:25;;;;;;;4.18;3.70;;;17.00;99.90;;;;;;5072921;28;20182;-67
2022/06/18 04:19:51;;;;;;;7.10;3.97;;;17.00;99.90;;;;;;5074529;28;20300;-66
2022/06/18 04:22:17;;;;;;;6.78;4.10;;;17.00;99.90;;;;;;5074187;28;20174;-66
2022/06/18 04:24:43;;;;;;;6.25;4.13;;;17.10;99.90;;;;;;5074124;28;20611;-67
2022/06/18 04:27:09;;;;;;;6.35;4.40;;;17.20;99.90;;;;;;5074225;28;20177;-66
2022/06/18 04:29:35;;;;;;;6.03;3.90;;;17.20;99.90;;;;;;5074163;28;20173;-66
2022/06/18 04:32:02;;;;;;;6.47;4.00;;;17.30;99.90;;;;;;5074381;28;20170;-66
2022/06/18 04:34:27;;;;;;;4.47;3.90;;;17.30;99.90;;;;;;5073820;28;20281;-66
2022/06/18 04:36:53;;;;;;;4.35;3.70;;;17.50;99.90;;;;;;5073939;28;20202;-66
2022/06/18 04:39:20;;;;;;;7.18;4.28;;;17.50;99.90;;;;;;5074575;28;20194;-66
2022/06/18 04:41:46;;;;;;;4.07;3.63;;;17.60;99.90;;;;;;5073885;28;20210;-66
2022/06/18 04:44:13;;;;;;;6.57;4.03;;;17.60;99.90;;;;;;5073619;28;20305;-66
2022/06/18 04:46:39;;;;;;;4.22;3.65;;;17.70;99.90;;;;;;5073780;28;20266;-66
2022/06/18 04:49:04;;;;;;;4.20;3.63;;;17.80;99.90;;;;;;5073776;28;20267;-66
2022/06/18 04:51:30;;;;;;;6.13;3.67;;;18.00;99.90;;;;;;5073753;28;20651;-67
2022/06/18 04:53:56;;;;;;;5.10;3.85;;;18.00;99.90;;;;;;5074036;28;20205;-66
2022/06/18 04:56:22;;;;;;;6.28;4.50;;;18.10;99.90;;;;;;5074044;28;20231;-66
2022/06/18 04:58:48;;;;;;;5.32;3.80;;;18.20;99.90;;;;;;5073819;28;20242;-66
2022/06/18 05:01:17;;;;;;;7.03;3.55;;;18.30;99.90;;;;;;5072137;28;20265;-66
2022/06/18 05:03:43;;;;;;;6.18;3.47;;;18.40;99.90;;;;;;5073646;28;20269;-66
2022/06/18 05:06:09;;;;;;;6.78;3.67;;;18.50;99.90;;;;;;5073528;28;20227;-66
2022/06/18 05:08:35;;;;;;;5.70;3.88;;;18.60;99.90;;;;;;5073874;28;20177;-66
2022/06/18 05:11:01;;;;;;;4.05;3.55;;;18.70;99.90;;;;;;5074029;28;20212;-67
2022/06/18 05:13:29;;;;;;;6.00;3.53;;;18.80;99.90;;;;;;5073448;28;20194;-66
2022/06/18 05:15:56;;;;;;;3.75;3.20;;;18.90;99.90;;;;;;5071867;28;20598;-66
2022/06/18 05:18:25;;;;;;;3.45;3.15;;;19.00;99.90;;;;;;5072122;28;20187;-66
2022/06/18 05:20:52;;;;;;;3.70;3.00;;;19.10;99.90;;;;;;5073361;28;20178;-66
2022/06/18 05:23:18;;;;;;;4.65;2.97;;;19.20;99.90;;;;;;5072094;28;20197;-67
2022/06/18 05:25:45;;;;;;;3.55;2.92;;;19.30;99.90;;;;;;5076240;28;20245;-67
2022/06/18 05:28:13;;;;;;;5.05;3.10;;;19.40;99.90;;;;;;5077429;28;20185;-71
2022/06/18 05:30:39;;;;;;;4.78;3.20;;;19.50;99.90;;;;;;5077891;28;20201;-71
2022/06/18 05:33:05;;;;;;;4.00;2.70;;;19.70;99.90;;;;;;5077586;28;20172;-71
2022/06/18 05:35:32;;;;;;;4.43;2.80;;;19.80;99.90;;;;;;5077346;28;20268;-72
2022/06/18 05:37:57;;;;;;;3.83;3.10;;;20.00;99.90;;;;;;5077964;28;20176;-71
2022/06/18 05:40:23;;;;;;;6.30;2.67;;;20.10;99.90;;;;;;5077799;28;20175;-71
2022/06/18 05:42:49;;;;;;;4.28;2.75;;;20.20;99.90;;;;;;5077173;28;20178;-72
2022/06/18 05:45:15;;;;;;;4.65;2.88;;;20.30;99.90;;;;;;5075821;28;20205;-71
2022/06/18 05:47:42;;;;;;;6.95;3.10;;;20.50;99.90;;;;;;5077409;28;20184;-71
2022/06/18 05:50:16;;;;;;;5.60;2.75;;;20.60;99.90;;;;;;5077142;28;20280;-71
2022/06/18 05:52:43;;;;;;;3.47;2.70;;;20.70;99.90;;;;;;5077748;28;20162;-71
2022/06/18 05:55:08;;;;;;;4.53;2.70;;;20.80;99.90;;;;;;5077052;28;20212;-72
2022/06/18 05:57:43;;;;;;;3.15;2.63;;;20.90;99.90;;;;;;5077060;28;20178;-67
2022/06/18 06:00:12;;;;;;;3.75;2.72;;;21.00;99.90;;;;;;5076817;28;20162;-67
2022/06/18 06:02:38;;;;;;;4.45;2.83;;;21.10;99.90;;;;;;5076863;28;20184;-67
2022/06/18 06:05:04;;;;;;;4.47;3.20;;;21.30;99.90;;;;;;5077369;28;20543;-67
2022/06/18 06:07:29;;;;;;;2.95;2.65;;;21.30;99.90;;;;;;5076429;28;20185;-72
2022/06/18 06:12:40;;;;;;;4.13;3.17;;;21.50;99.90;;;;;;5077368;28;20172;-71
2022/06/18 06:15:07;;;;;;;4.05;2.80;;;21.70;99.90;;;;;;5076341;28;20210;-71
2022/06/18 06:17:33;;;;;;;6.38;3.10;;;21.80;99.90;;;;;;5076581;28;20208;-71
2022/06/18 06:20:11;;;;;;;3.85;2.58;;;21.90;99.90;;;;;;5076712;28;20173;-71
2022/06/18 06:22:37;;;;;;;5.85;2.83;;;22.00;99.90;;;;;;5077029;28;20646;-71
2022/06/18 06:25:03;;;;;;;6.00;2.80;;;22.20;99.90;;;;;;5076403;28;20201;-71
2022/06/18 06:27:28;;;;;;;4.75;3.00;;;22.30;99.90;;;;;;5076667;28;20657;-72
2022/06/18 06:29:54;;;;;;;4.45;2.70;;;22.40;99.90;;;;;;5076114;28;20181;-71
2022/06/18 06:32:21;;;;;;;4.45;2.85;;;22.50;99.90;;;;;;5077050;28;20166;-72
2022/06/18 06:34:46;;;;;;;5.75;2.97;;;22.50;99.90;;;;;;5076396;28;20196;-71
2022/06/18 06:37:12;;;;;;;3.30;2.30;;;22.60;99.90;;;;;;5074352;28;20173;-72
2022/06/18 06:39:38;;;;;;;5.47;2.90;;;22.80;99.90;;;;;;5074918;28;20235;-72
2022/06/18 06:42:04;;;;;;;3.92;2.67;;;22.90;99.90;;;;;;5076548;28;20170;-72
2022/06/18 06:44:31;;;;;;;7.40;2.50;;;23.00;99.90;;;;;;5074909;28;20189;-72
2022/06/18 06:46:59;;;;;;;7.05;3.00;;;23.10;99.90;;;;;;5076961;28;20174;-72
2022/06/18 06:49:25;;;;;;;4.45;2.45;;;23.20;99.90;;;;;;5077574;28;20166;-72
2022/06/18 06:51:53;;;;;;;4.93;3.05;;;23.40;99.90;;;;;;5079591;28;20197;-71
2022/06/18 06:54:19;;;;;;;4.00;2.75;;;23.50;99.90;;;;;;5077731;28;20198;-67
2022/06/18 06:59:30;;;;;;;3.22;2.78;;;23.70;99.90;;;;;;5080292;28;20637;-69
2022/06/18 07:01:56;;;;;;;7.88;2.92;;;23.80;99.90;;;;;;5078033;28;20219;-68
2022/06/18 07:04:22;;;;;;;6.35;3.13;;;24.00;99.90;;;;;;5077232;28;20204;-70
2022/06/18 07:06:48;;;;;;;4.40;2.97;;;24.10;99.90;;;;;;5076937;28;20166;-70
2022/06/18 07:09:17;;;;;;;5.53;3.17;;;24.20;99.90;;;;;;5075324;28;20185;-70
2022/06/18 07:11:47;;;;;;;12.90;3.25;;;24.20;99.90;;;;;;5076288;28;20285;-70
2022/06/18 07:14:23;;;;;;;4.28;3.20;;;24.40;99.90;;;;;;5074878;28;20750;-70
2022/06/18 07:16:54;;;;;;;6.80;3.17;;;24.50;99.90;;;;;;5074505;28;20173;-69
2022/06/18 07:19:21;;;;;;;4.30;2.42;;;24.60;99.90;;;;;;5074665;28;20162;-70
2022/06/18 07:21:52;;;;;;;5.10;3.10;;;24.70;99.90;;;;;;5074500;28;20209;-70
2022/06/18 07:24:21;;;;;;;4.68;3.28;;;24.80;99.90;;;;;;5075910;28;20562;-70
2022/06/18 07:26:48;;;;;;;5.35;2.97;;;24.80;99.90;;;;;;5084121;28;20649;-69
2022/06/18 07:29:20;;;;;;;5.53;3.25;;;24.90;99.90;;;;;;5094510;28;20638;-69
2022/06/18 07:31:52;;;;;;;7.10;3.17;;;24.90;99.90;;;;;;5078414;28;20212;-69
2022/06/18 07:34:19;;;;;;;3.95;3.22;;;25.00;99.90;;;;;;5094889;28;20203;-70
2022/06/18 07:36:45;;;;;;;6.65;3.22;;;25.00;99.90;;;;;;5094051;28;20173;-69
2022/06/18 07:39:12;;;;;;;6.03;3.08;;;25.00;99.90;;;;;;5077524;28;20641;-70
2022/06/18 07:41:44;;;;;;;6.50;3.13;;;25.10;99.90;;;;;;5077298;28;20228;-69
2022/06/18 07:44:14;;;;;;;4.85;2.90;;;25.20;99.90;;;;;;5094260;28;20232;-70
2022/06/18 07:46:40;;;;;;;4.50;2.72;;;25.20;99.90;;;;;;5095262;28;20162;-70
2022/06/18 07:49:09;;;;;;;6.88;3.28;;;25.30;99.90;;;;;;5094128;28;20184;-69
2022/06/18 07:51:39;;;;;;;6.25;3.30;;;25.40;99.90;;;;;;5094463;28;20605;-70
2022/06/18 07:54:09;;;;;;;7.65;3.33;;;25.50;99.90;;;;;;5094193;28;20197;-69
2022/06/18 07:56:35;;;;;;;4.00;3.00;;;25.50;99.90;;;;;;5077569;28;20212;-69
2022/06/18 07:59:01;;;;;;;7.32;3.03;;;25.60;99.90;;;;;;5078032;28;20271;-69
2022/06/18 08:01:29;;;;;;;7.15;3.33;;;25.70;99.90;;;;;;5094054;28;20173;-69
2022/06/18 08:03:56;;;;;;;8.00;3.42;;;25.80;99.90;;;;;;5094194;28;20205;-70
2022/06/18 08:06:25;;;;;;;8.90;3.53;;;25.90;99.90;;;;;;5095132;28;20627;-70
2022/06/18 08:08:53;;;;;;;6.60;2.85;;;26.00;99.90;;;;;;5093839;28;20181;-69
2022/06/18 08:11:29;;;;;;;6.90;3.65;;;26.00;99.90;;;;;;5095008;28;20207;-69
2022/06/18 08:13:59;;;;;;;4.80;3.45;;;26.20;99.90;;;;;;5095195;28;20283;-70
2022/06/18 08:16:25;;;;;;;5.57;3.42;;;26.20;99.90;;;;;;5093391;28;20177;-69
2022/06/18 08:18:51;;;;;;;7.15;3.45;;;26.30;99.90;;;;;;5093351;28;20185;-69
2022/06/18 08:21:27;;;;;;;7.15;3.38;;;26.30;99.90;;;;;;5094272;28;20604;-69
2022/06/18 08:24:00;;;;;;;7.40;3.30;;;26.40;99.90;;;;;;5093183;28;20258;-69
2022/06/18 08:26:27;;;;;;;6.22;3.60;;;26.50;99.90;;;;;;5093088;28;20192;-69
2022/06/18 08:28:53;;;;;;;5.10;3.40;;;26.60;99.90;;;;;;5093226;28;20275;-69
2022/06/18 08:31:19;;;;;;;5.75;3.30;;;26.70;99.90;;;;;;5092824;28;20201;-69
2022/06/18 08:33:45;;;;;;;4.85;3.00;;;26.80;99.90;;;;;;5093016;28;20200;-69
2022/06/18 08:36:15;;;;;;;5.32;2.95;;;26.80;99.90;;;;;;5059584;28;20555;-70
2022/06/18 08:38:45;;;;;;;5.10;3.40;;;26.90;99.90;;;;;;5092990;28;20213;-70
2022/06/18 08:41:16;;;;;;;6.82;3.45;;;27.10;99.90;;;;;;5094174;28;20170;-69
2022/06/18 08:44:03;;;;;;;9.75;3.15;;;27.20;99.90;;;;;;5093006;28;20204;-69
2022/06/18 08:46:53;;;;;;;6.50;3.08;;;27.20;99.90;;;;;;5092538;28;20192;-69
2022/06/18 08:49:34;;;;;;;7.00;3.13;;;27.30;99.90;;;;;;5092835;28;20188;-70
2022/06/18 08:52:20;;;;;;;5.30;3.45;;;27.40;99.90;;;;;;5093060;28;20216;-69
2022/06/18 08:54:57;;;;;;;5.28;2.90;;;27.50;99.90;;;;;;5094060;28;20189;-70
2022/06/18 08:57:41;;;;;;;11.88;3.40;;;27.70;99.90;;;;;;5093781;28;20249;-69
2022/06/18 09:00:28;;;;;;;8.48;3.40;;;27.70;99.90;;;;;;5092031;28;20260;-69
2022/06/18 09:03:25;;;;;;;10.48;3.58;;;27.90;99.90;;;;;;5094114;28;20165;-69
2022/06/18 09:06:09;;;;;;;7.57;3.17;;;28.00;99.90;;;;;;5064183;28;20188;-70
2022/06/18 09:08:44;;;;;;;8.75;3.60;;;28.20;99.90;;;;;;5092172;28;20173;-69
2022/06/18 09:11:53;;;;;;;6.57;3.50;;;28.30;99.90;;;;;;5092484;28;20257;-69
2022/06/18 09:14:49;;;;;;;4.30;2.70;;;28.50;99.90;;;;;;5092327;28;20296;-69
2022/06/18 09:17:34;;;;;;;7.30;2.90;;;28.70;99.90;;;;;;5092327;28;20169;-69
2022/06/18 09:20:15;;;;;;;5.40;3.35;;;28.80;99.90;;;;;;5094431;28;20630;-70
2022/06/18 09:22:52;;;;;;;7.72;3.65;;;29.00;99.90;;;;;;5092288;28;20227;-70
2022/06/18 09:25:20;;;;;;;8.82;3.13;;;29.20;99.90;;;;;;5092604;28;20268;-70
2022/06/18 09:28:27;;;;;;;8.25;3.28;;;29.30;99.90;;;;;;5092084;28;20657;-69
2022/06/18 09:31:12;;;;;;;8.98;3.38;;;29.40;99.90;;;;;;5091882;28;20217;-69
2022/06/18 09:33:48;;;;;;;7.85;3.25;;;29.60;99.90;;;;;;5076555;28;20193;-69
2022/06/18 09:36:31;;;;;;;10.32;3.45;;;29.80;99.90;;;;;;5093413;28;20153;-70
2022/06/18 09:39:11;;;;;;;7.00;3.88;;;29.80;99.90;;;;;;5093577;28;20161;-70
2022/06/18 09:42:02;;;;;;;10.98;2.97;;;29.80;99.90;;;;;;5092278;28;20648;-69
2022/06/18 09:44:45;;;;;;;11.02;2.95;;;29.90;99.90;;;;;;5092193;28;20287;-70
2022/06/18 09:47:22;;;;;;;9.18;3.42;;;30.00;99.90;;;;;;5091964;28;20177;-69
2022/06/18 09:49:52;;;;;;;5.50;3.10;;;30.10;99.90;;;;;;5092108;28;20169;-70
2022/06/18 09:52:34;;;;;;;7.35;3.70;;;30.20;99.90;;;;;;5093462;28;20169;-69
2022/06/18 09:55:20;;;;;;;8.82;3.47;;;30.20;99.90;;;;;;5092123;28;20193;-70
2022/06/18 09:57:52;;;;;;;18.27;4.03;;;30.40;99.90;;;;;;5075252;28;20638;-70
2022/06/18 10:00:24;;;;;;;11.20;3.33;;;30.50;99.90;;;;;;5091596;28;20188;-70
2022/06/18 10:03:04;;;;;;;9.10;3.40;;;30.50;99.90;;;;;;5091931;28;20177;-70
2022/06/18 10:08:34;;;;;;;6.22;3.17;;;30.40;99.90;;;;;;5093752;28;20559;-70
2022/06/18 10:11:24;;;;;;;8.68;3.15;;;30.60;99.90;;;;;;5091886;28;20727;-69
2022/06/18 10:14:04;;;;;;;6.63;3.38;;;30.50;99.90;;;;;;5096807;28;20728;-70
2022/06/18 10:16:31;;;;;;;6.90;3.10;;;30.60;99.90;;;;;;5096770;28;20235;-69
2022/06/18 10:19:35;;;;;;;8.18;3.35;;;30.50;99.90;;;;;;5095548;28;20713;-69
2022/06/18 10:22:13;;;;;;;10.90;3.33;;;30.60;99.90;;;;;;5097213;28;20215;-70
2022/06/18 10:24:45;;;;;;;11.27;3.70;;;30.60;99.90;;;;;;5095443;28;20685;-69
2022/06/18 10:27:52;;;;;;;9.23;3.50;;;30.60;99.90;;;;;;5095197;28;20200;-69
2022/06/18 10:30:29;;;;;;;8.55;3.47;;;30.80;99.90;;;;;;5095106;28;20679;-69
2022/06/18 10:33:42;;;;;;;13.68;3.75;;;30.90;99.90;;;;;;5095355;28;20196;-69
2022/06/18 10:36:23;;;;;;;14.25;3.92;;;30.90;99.90;;;;;;5074518;28;20670;-69
2022/06/18 10:39:42;;;;;;;6.82;3.55;;;31.00;99.90;;;;;;5094367;28;20213;-69
2022/06/18 10:42:35;;;;;;;9.98;3.53;;;31.00;99.90;;;;;;5073879;28;20230;-70
2022/06/18 10:45:04;;;;;;;11.23;3.53;;;31.20;99.90;;;;;;5096375;28;20272;-69
2022/06/18 10:47:37;;;;;;;8.27;3.40;;;31.20;99.90;;;;;;5094719;28;20201;-69
2022/06/18 10:50:29;;;;;;;10.98;4.03;;;31.30;99.90;;;;;;5094851;28;20610;-69
2022/06/18 10:53:15;;;;;;;12.85;3.10;;;31.20;99.90;;;;;;5093369;28;20187;-69
2022/06/18 10:55:43;;;;;;;11.27;3.10;;;31.30;99.90;;;;;;5094638;28;20638;-70
2022/06/18 10:58:15;;;;;;;15.15;3.60;;;31.40;99.90;;;;;;5074631;28;20177;-70
2022/06/18 11:01:00;;;;;;;9.18;3.40;;;31.40;99.90;;;;;;5074306;28;20188;-69
2022/06/18 11:03:30;;;;;;;9.60;3.63;;;31.30;99.90;;;;;;5074350;28;20204;-70
2022/06/18 11:06:03;;;;;;;15.45;3.78;;;31.40;99.90;;;;;;5058558;28;20530;-70
2022/06/18 11:08:31;;;;;;;9.05;3.45;;;31.50;99.90;;;;;;5074586;28;20204;-69
2022/06/18 11:11:08;;;;;;;9.98;3.10;;;31.50;99.90;;;;;;5074392;28;20206;-69
2022/06/18 11:13:40;;;;;;;7.10;3.58;;;31.60;99.90;;;;;;5074410;28;20200;-69
2022/06/18 11:16:28;;;;;;;10.35;3.45;;;31.80;99.90;;;;;;5075835;28;20185;-69
2022/06/18 11:19:16;;;;;;;9.98;3.47;;;32.00;99.90;;;;;;5075436;28;20181;-70
2022/06/18 11:21:43;;;;;;;12.07;3.47;;;32.30;99.90;;;;;;5057982;28;20223;-70
2022/06/18 11:24:15;;;;;;;9.68;3.40;;;32.40;99.90;;;;;;5056999;28;20208;-69
2022/06/18 11:26:55;;;;;;;9.40;4.00;;;32.50;99.90;;;;;;5074070;28;20192;-69
2022/06/18 11:29:47;;;;;;;10.40;3.22;;;32.40;99.90;;;;;;5074146;28;20170;-70
2022/06/18 11:32:24;;;;;;;10.90;3.65;;;32.50;99.90;;;;;;5074934;28;20193;-69
2022/06/18 11:35:11;;;;;;;8.20;3.28;;;32.60;99.90;;;;;;5075016;28;20199;-69
2022/06/18 11:38:01;;;;;;;15.30;4.15;;;32.50;99.90;;;;;;5075077;28;20166;-70
2022/06/18 11:40:29;;;;;;;10.27;3.67;;;32.50;99.90;;;;;;5073644;28;20190;-70
2022/06/18 11:43:00;;;;;;;9.82;3.63;;;32.50;99.90;;;;;;5073528;28;20177;-70
2022/06/18 11:45:46;;;;;;;8.23;3.35;;;32.50;99.90;;;;;;5073305;28;20181;-69
2022/06/18 11:48:18;;;;;;;8.20;3.05;;;32.50;99.90;;;;;;5074901;28;20590;-70
2022/06/18 11:50:56;;;;;;;9.45;3.70;;;32.80;99.90;;;;;;5073427;28;20201;-70
2022/06/18 11:54:10;;;;;;;13.15;3.58;;;33.10;99.90;;;;;;5074319;28;20665;-70
2022/06/18 11:57:07;;;;;;;10.32;3.83;;;33.30;99.90;;;;;;5068142;28;20190;-70
2022/06/18 12:00:05;;;;;;;9.20;3.72;;;33.60;99.90;;;;;;5073615;28;20174;-70
2022/06/18 12:02:43;;;;;;;14.18;3.58;;;33.70;99.90;;;;;;5072829;28;20178;-70
2022/06/18 12:05:27;;;;;;;13.02;3.33;;;33.50;99.90;;;;;;5073305;28;20549;-70
2022/06/18 12:07:57;;;;;;;8.65;3.22;;;33.60;99.90;;;;;;5074196;28;20185;-70
2022/06/18 12:10:38;;;;;;;13.40;3.60;;;33.80;99.90;;;;;;5074563;28;20210;-70
2022/06/18 12:13:15;;;;;;;15.55;3.42;;;34.00;99.90;;;;;;5073765;28;20177;-70
2022/06/18 12:15:54;;;;;;;10.50;3.42;;;34.10;99.90;;;;;;5074441;28;20212;-70
2022/06/18 12:18:34;;;;;;;12.57;4.00;;;34.10;99.90;;;;;;5073280;28;20177;-70
2022/06/18 12:21:29;;;;;;;11.13;3.58;;;34.10;99.90;;;;;;5074369;28;20237;-70
2022/06/18 12:24:19;;;;;;;8.98;3.13;;;34.00;99.90;;;;;;5073109;28;20232;-70
2022/06/18 12:26:58;;;;;;;13.43;3.42;;;33.80;99.90;;;;;;5073211;28;20190;-70
2022/06/18 12:29:51;;;;;;;13.40;3.65;;;33.80;99.90;;;;;;5074675;28;20177;-70
2022/06/18 12:32:47;;;;;;;10.68;3.60;;;34.00;99.90;;;;;;5074106;28;20547;-70
2022/06/18 12:35:32;;;;;;;10.13;3.58;;;34.20;99.90;;;;;;5071621;28;20573;-70
2022/06/18 12:38:37;;;;;;;10.63;4.18;;;34.10;99.90;;;;;;5072813;28;20174;-70
2022/06/18 12:41:41;;;;;;;12.10;3.47;;;34.50;99.90;;;;;;5072998;28;20173;-70
2022/06/18 12:44:15;;;;;;;9.15;3.38;;;34.90;99.90;;;;;;5072691;28;20662;-70
2022/06/18 12:47:02;;;;;;;10.93;3.63;;;35.00;99.90;;;;;;5072887;28;20272;-70
2022/06/18 12:50:09;;;;;;;9.93;3.45;;;35.00;99.90;;;;;;5072833;28;20173;-70
2022/06/18 12:53:21;;;;;;;10.07;3.55;;;35.30;99.90;;;;;;5052727;28;20198;-70
2022/06/18 12:56:25;;;;;;;8.63;3.50;;;35.20;99.90;;;;;;5016567;28;20205;-70
2022/06/18 12:59:21;;;;;;;9.80;3.47;;;34.90;99.90;;;;;;5051970;28;20163;-70
2022/06/18 13:02:09;;;;;;;12.45;3.63;;;35.20;99.90;;;;;;5072255;28;20185;-70
2022/06/18 13:05:08;;;;;;;11.73;3.47;;;35.00;99.90;;;;;;5072671;28;20263;-70
2022/06/18 13:07:51;;;;;;;11.25;3.25;;;35.00;99.90;;;;;;5073686;28;20281;-70
2022/06/18 13:10:37;;;;;;;9.98;3.50;;;34.70;99.90;;;;;;5072354;28;20255;-70
2022/06/18 13:13:36;;;;;;;8.45;3.20;;;34.70;99.90;;;;;;5072743;28;20181;-70
2022/06/18 13:16:22;;;;;;;11.85;3.53;;;35.30;99.90;;;;;;5070764;28;20194;-70
2022/06/18 13:19:00;;;;;;;14.27;3.53;;;35.30;99.90;;;;;;5073035;28;20553;-71
2022/06/18 13:21:27;;;;;;;9.05;3.22;;;35.40;99.90;;;;;;5072955;28;20189;-71
2022/06/18 13:29:57;;;;;;;10.55;3.72;;;35.90;99.90;;;;;;5074364;28;20173;-70
2022/06/18 13:32:35;;;;;;;9.30;3.53;;;35.90;99.90;;;;;;5073415;28;20264;-70
2022/06/18 13:35:22;;;;;;;13.98;3.50;;;36.00;99.90;;;;;;5073802;28;20280;-71
2022/06/18 13:38:01;;;;;;;14.25;4.28;;;36.20;99.90;;;;;;5075446;28;20233;-69